Terminal Aerodrome Forecast
Issued by NWS Caribou, ME

Home | Current Version | Previous Version | Text Only | Print | Product List | Glossary On
Versions: 1 2 3 4 5 6 7 8 9 10 11 12 13 14 15 16 17
000
FTUS41 KCAR 181700
TAFBGR
TAF
KBGR 181721Z 1818/1918 31010G18KT P6SM BKN040
     FM182000 31008KT P6SM SCT035
     FM190600 33004KT P6SM FEW250=

USA.gov is the U.S. government's official web portal to all federal, state and local government web resources and services.